Time;durP1;ratioP1;P1;durP2;ratioP2;P2;SDS_P1;SDS_P2;PMS_P1;PMS_P2;Temp;Humidity;BMP_temperature;BMP_pressure;BME280_temperature;BME280_humidity;BME280_pressure;Samples;Min_cycle;Max_cycle;Signal;HPM_P1;HPM_P2
2023/10/08 00:01:16;;;;;;;25.00;14.77;;;17.40;73.70;;;;;;4957326;29;20176;-64
2023/10/08 00:03:49;;;;;;;28.02;15.60;;;17.40;73.70;;;;;;4960816;28;20157;-64
2023/10/08 00:06:15;;;;;;;25.65;15.82;;;17.30;73.90;;;;;;5015388;28;20108;-64
2023/10/08 00:08:44;;;;;;;22.73;14.88;;;17.30;74.20;;;;;;5015430;28;20034;-64
2023/10/08 00:11:11;;;;;;;23.20;14.65;;;17.30;73.80;;;;;;5015341;28;20026;-64
2023/10/08 00:13:39;;;;;;;24.67;15.18;;;17.20;74.00;;;;;;5016071;28;20042;-64
2023/10/08 00:16:16;;;;;;;23.90;13.75;;;17.20;74.00;;;;;;5015329;28;20122;-65
2023/10/08 00:18:51;;;;;;;23.55;15.40;;;17.20;74.60;;;;;;5015329;28;20129;-65
2023/10/08 00:21:19;;;;;;;23.73;15.70;;;17.30;74.30;;;;;;5062882;28;20445;-64
2023/10/08 00:24:09;;;;;;;25.90;15.73;;;17.30;74.00;;;;;;5076504;28;20080;-65
2023/10/08 00:26:39;;;;;;;28.50;17.65;;;17.30;73.90;;;;;;5075937;28;20134;-64
2023/10/08 00:29:43;;;;;;;27.17;15.98;;;17.30;75.00;;;;;;5076669;28;20032;-64
2023/10/08 00:32:11;;;;;;;21.45;14.27;;;17.20;74.60;;;;;;5073204;28;20031;-65
2023/10/08 00:34:41;;;;;;;22.05;15.00;;;17.10;74.60;;;;;;5076337;28;20082;-65
2023/10/08 00:37:14;;;;;;;25.77;15.93;;;17.10;74.40;;;;;;5076559;28;20028;-64
2023/10/08 00:39:40;;;;;;;24.55;15.40;;;17.00;74.40;;;;;;5024741;28;20426;-64
2023/10/08 00:42:08;;;;;;;23.73;14.93;;;17.00;74.60;;;;;;5075818;28;20052;-65
2023/10/08 00:45:13;;;;;;;22.90;15.65;;;17.00;74.60;;;;;;5076437;28;20147;-64
2023/10/08 00:47:34;;;;;;;18.85;12.77;;;17.00;74.60;;;;;;5070910;28;20373;-64
2023/10/08 00:50:08;;;;;;;19.65;14.00;;;17.00;74.60;;;;;;5076022;28;20047;-64
2023/10/08 00:55:28;;;;;;;26.17;16.00;;;17.00;74.70;;;;;;5076249;28;20085;-64
2023/10/08 00:57:58;;;;;;;27.17;17.40;;;17.00;74.70;;;;;;5076408;28;20107;-64
2023/10/08 01:00:42;;;;;;;25.13;16.42;;;17.00;74.80;;;;;;5076056;28;20342;-64
2023/10/08 01:03:26;;;;;;;23.90;15.27;;;16.90;75.00;;;;;;5075872;28;20028;-64
2023/10/08 01:05:57;;;;;;;25.45;16.17;;;16.90;75.00;;;;;;5075671;28;20115;-65
2023/10/08 01:08:36;;;;;;;23.88;15.25;;;16.90;74.80;;;;;;5075899;28;20449;-64
2023/10/08 01:11:49;;;;;;;24.33;15.48;;;16.90;74.90;;;;;;5075969;28;20082;-64
2023/10/08 01:14:20;;;;;;;22.58;14.13;;;16.90;75.10;;;;;;4994738;28;20105;-64
2023/10/08 01:16:47;;;;;;;23.42;15.15;;;16.80;75.10;;;;;;4994599;28;20101;-64
2023/10/08 01:19:20;;;;;;;25.33;16.40;;;16.80;74.80;;;;;;4994416;28;20034;-64
2023/10/08 01:21:48;;;;;;;25.65;15.75;;;16.80;74.80;;;;;;4994499;28;20037;-64
2023/10/08 01:24:17;;;;;;;23.17;15.20;;;16.80;74.80;;;;;;4994429;28;20035;-64
2023/10/08 01:26:46;;;;;;;25.23;15.98;;;16.80;75.10;;;;;;4994379;28;20085;-65
2023/10/08 01:29:21;;;;;;;23.73;15.57;;;16.80;75.00;;;;;;4994940;28;20022;-64
2023/10/08 01:32:02;;;;;;;24.70;15.40;;;16.90;74.90;;;;;;4994590;28;20042;-64
2023/10/08 01:34:35;;;;;;;23.52;15.73;;;16.90;74.80;;;;;;4994357;28;20034;-64
2023/10/08 01:37:12;;;;;;;26.40;15.57;;;16.90;74.70;;;;;;4994350;28;20421;-64
2023/10/08 01:39:42;;;;;;;29.17;16.50;;;16.80;74.80;;;;;;4994825;28;20030;-64
2023/10/08 01:44:36;;;;;;;21.80;15.07;;;16.80;75.10;;;;;;4994754;28;20128;-64
2023/10/08 01:47:05;;;;;;;24.30;16.10;;;16.80;75.00;;;;;;4994231;28;20372;-64
2023/10/08 01:49:33;;;;;;;21.73;14.48;;;16.80;75.10;;;;;;5005283;28;20067;-64
2023/10/08 01:52:07;;;;;;;25.33;15.95;;;16.80;75.10;;;;;;5059630;28;20082;-64
2023/10/08 01:57:04;;;;;;;22.55;14.63;;;16.70;75.60;;;;;;5062101;28;19916;-64
2023/10/08 01:59:33;;;;;;;23.63;15.38;;;16.70;75.00;;;;;;5061872;28;20331;-64
2023/10/08 02:01:59;;;;;;;22.95;14.88;;;16.70;75.00;;;;;;5061656;28;20029;-64
2023/10/08 02:04:28;;;;;;;24.20;15.32;;;16.60;75.10;;;;;;5061757;28;20100;-64
2023/10/08 02:06:54;;;;;;;23.95;15.27;;;16.60;75.10;;;;;;5061668;28;20029;-64
2023/10/08 02:09:26;;;;;;;25.15;16.15;;;16.50;75.30;;;;;;5061825;28;20047;-64
2023/10/08 02:11:53;;;;;;;22.55;14.40;;;16.50;75.20;;;;;;5060322;28;20082;-64
2023/10/08 02:14:22;;;;;;;25.52;15.75;;;16.50;75.30;;;;;;5061652;28;20349;-65
2023/10/08 02:16:56;;;;;;;25.13;14.40;;;16.60;75.40;;;;;;5061913;28;20483;-65
2023/10/08 02:19:28;;;;;;;25.63;15.77;;;16.50;75.40;;;;;;5061507;28;20032;-65
2023/10/08 02:21:57;;;;;;;22.55;14.68;;;16.50;75.40;;;;;;5062139;28;20028;-64
2023/10/08 02:24:26;;;;;;;22.67;14.68;;;16.50;75.30;;;;;;5061533;28;20025;-64
2023/10/08 02:26:56;;;;;;;26.23;17.55;;;16.50;75.30;;;;;;5062049;28;20056;-64
2023/10/08 02:29:29;;;;;;;27.40;18.27;;;16.50;75.80;;;;;;5061373;28;20021;-64
2023/10/08 02:31:58;;;;;;;26.73;16.30;;;16.40;75.40;;;;;;5061493;28;20025;-65
2023/10/08 02:34:28;;;;;;;31.35;17.13;;;16.30;75.70;;;;;;5061467;28;20092;-65
2023/10/08 02:36:59;;;;;;;21.27;14.68;;;16.20;75.50;;;;;;5061523;28;20036;-64
2023/10/08 02:39:29;;;;;;;25.10;16.27;;;16.10;75.80;;;;;;5061398;28;20469;-64
2023/10/08 02:41:59;;;;;;;23.20;15.15;;;16.10;75.70;;;;;;5068090;28;20052;-65
2023/10/08 02:44:27;;;;;;;24.20;15.95;;;16.10;75.90;;;;;;5081973;28;20020;-64
2023/10/08 02:46:54;;;;;;;24.98;15.93;;;16.00;75.80;;;;;;5081254;28;20082;-64
2023/10/08 02:49:28;;;;;;;23.92;15.05;;;16.00;75.90;;;;;;5081269;28;20082;-65
2023/10/08 02:51:58;;;;;;;19.67;13.18;;;16.00;75.80;;;;;;5081393;28;20521;-64
2023/10/08 02:54:32;;;;;;;29.10;18.38;;;16.00;75.90;;;;;;5081249;28;20064;-65
2023/10/08 02:57:03;;;;;;;28.13;18.95;;;15.90;75.60;;;;;;5082387;28;20098;-65
2023/10/08 02:59:44;;;;;;;28.88;18.88;;;15.90;76.40;;;;;;5081119;28;20072;-64
2023/10/08 03:02:21;;;;;;;24.67;15.80;;;15.80;76.90;;;;;;5080826;28;20036;-64
2023/10/08 03:05:08;;;;;;;24.10;15.77;;;15.70;76.80;;;;;;5078058;28;20032;-65
2023/10/08 03:07:37;;;;;;;21.90;15.60;;;15.80;77.70;;;;;;5077800;28;20044;-65
2023/10/08 03:10:16;;;;;;;25.02;15.45;;;15.90;76.60;;;;;;5077985;28;20032;-65
2023/10/08 03:12:55;;;;;;;26.10;18.20;;;16.00;76.20;;;;;;5076507;28;20074;-65
2023/10/08 03:15:30;;;;;;;24.63;15.35;;;16.00;75.90;;;;;;5077951;28;20108;-64
2023/10/08 03:18:14;;;;;;;22.45;14.27;;;16.00;75.90;;;;;;5078297;28;20032;-64
2023/10/08 03:20:44;;;;;;;21.52;14.75;;;16.00;76.00;;;;;;5078122;28;20350;-64
2023/10/08 03:23:25;;;;;;;25.58;14.75;;;15.90;75.70;;;;;;5077627;28;20032;-64
2023/10/08 03:26:10;;;;;;;25.23;15.50;;;15.90;77.00;;;;;;5077659;28;20428;-64
2023/10/08 03:28:37;;;;;;;20.88;14.38;;;16.10;76.10;;;;;;5077458;28;20043;-64
2023/10/08 03:31:13;;;;;;;20.67;14.52;;;16.20;76.00;;;;;;5077619;28;20509;-65
2023/10/08 03:33:43;;;;;;;25.17;16.98;;;16.30;75.00;;;;;;5077732;28;20042;-64
2023/10/08 03:36:34;;;;;;;31.80;17.77;;;16.20;75.10;;;;;;5077402;28;20033;-64
2023/10/08 03:38:57;;;;;;;25.55;15.60;;;16.00;75.10;;;;;;5076911;28;20082;-64
2023/10/08 03:41:39;;;;;;;24.10;15.50;;;15.90;75.80;;;;;;5077194;28;20025;-64
2023/10/08 03:44:16;;;;;;;28.10;17.63;;;15.90;75.90;;;;;;5077883;28;20024;-64
2023/10/08 03:46:48;;;;;;;28.73;17.92;;;15.80;75.90;;;;;;5078055;28;20074;-65
2023/10/08 03:49:32;;;;;;;29.27;18.40;;;15.70;76.00;;;;;;5077410;28;20323;-65
2023/10/08 03:52:00;;;;;;;25.88;17.25;;;15.50;76.00;;;;;;5077115;28;20389;-64
2023/10/08 03:54:35;;;;;;;27.55;15.70;;;15.40;76.00;;;;;;5077899;28;20353;-64
2023/10/08 03:57:05;;;;;;;29.10;17.67;;;15.30;76.00;;;;;;5077859;28;20153;-64
2023/10/08 03:59:31;;;;;;;29.33;16.33;;;15.20;76.30;;;;;;5077525;28;20035;-64
2023/10/08 04:02:23;;;;;;;27.23;16.58;;;15.20;76.60;;;;;;5077022;28;20020;-64
2023/10/08 04:05:17;;;;;;;28.40;17.17;;;15.20;77.10;;;;;;5076844;28;20047;-64
2023/10/08 04:13:10;;;;;;;23.98;15.68;;;15.20;77.00;;;;;;5076857;28;20036;-64
2023/10/08 04:15:41;;;;;;;24.88;15.18;;;15.20;76.90;;;;;;5077160;28;20052;-64
2023/10/08 04:18:22;;;;;;;28.48;17.30;;;15.20;76.70;;;;;;5076653;28;20040;-64
2023/10/08 04:21:12;;;;;;;24.90;15.38;;;15.30;76.70;;;;;;5076608;28;20446;-64
2023/10/08 04:26:28;;;;;;;22.85;14.23;;;15.20;76.80;;;;;;5077408;28;20411;-64
2023/10/08 04:28:58;;;;;;;26.42;14.82;;;15.20;76.90;;;;;;5076609;28;20032;-65
2023/10/08 04:31:36;;;;;;;19.73;13.32;;;15.30;76.80;;;;;;5076367;28;20028;-64
2023/10/08 04:34:23;;;;;;;29.58;18.52;;;15.30;76.80;;;;;;5077146;28;20028;-64
2023/10/08 04:37:00;;;;;;;27.27;16.88;;;15.30;76.70;;;;;;5076919;28;20521;-64
2023/10/08 04:39:32;;;;;;;31.90;19.77;;;15.30;76.70;;;;;;5076169;28;20039;-64
2023/10/08 04:42:06;;;;;;;31.52;18.85;;;15.20;77.00;;;;;;5075680;28;20113;-64
2023/10/08 04:44:33;;;;;;;23.30;15.30;;;15.20;77.40;;;;;;5076437;28;20115;-64
2023/10/08 04:47:05;;;;;;;28.90;17.70;;;15.00;77.30;;;;;;5076233;28;20055;-65
2023/10/08 04:49:33;;;;;;;24.48;16.05;;;14.90;77.30;;;;;;5076001;28;20050;-64
2023/10/08 04:52:08;;;;;;;24.17;15.00;;;14.90;77.40;;;;;;5075992;28;20095;-64
2023/10/08 04:54:40;;;;;;;26.10;17.42;;;14.90;77.80;;;;;;5076252;28;20033;-64
2023/10/08 04:57:14;;;;;;;26.05;15.50;;;14.90;77.80;;;;;;5076224;28;20033;-64
2023/10/08 04:59:46;;;;;;;24.02;14.70;;;14.90;77.60;;;;;;5075766;28;20111;-64
2023/10/08 05:02:19;;;;;;;26.95;15.43;;;14.90;77.80;;;;;;5075710;28;20100;-64
2023/10/08 05:05:21;;;;;;;25.52;16.67;;;14.90;77.60;;;;;;5076093;28;20354;-65
2023/10/08 05:13:14;;;;;;;24.33;14.73;;;14.90;78.50;;;;;;5076570;28;20067;-64
2023/10/08 05:16:02;;;;;;;28.27;17.95;;;14.90;78.10;;;;;;5075469;28;20037;-65
2023/10/08 05:19:06;;;;;;;25.55;16.38;;;14.80;78.40;;;;;;5075866;28;20035;-64
2023/10/08 05:21:25;;;;;;;24.38;15.57;;;14.80;78.60;;;;;;5075314;28;20032;-64
2023/10/08 05:24:13;;;;;;;24.30;14.65;;;14.80;78.70;;;;;;5075843;28;20063;-64
2023/10/08 05:26:44;;;;;;;20.63;13.73;;;14.80;78.70;;;;;;5075171;28;20075;-64
2023/10/08 05:35:30;;;;;;;27.80;15.52;;;14.90;77.90;;;;;;5075491;28;20166;-64
2023/10/08 05:37:41;;;;;;;25.83;16.40;;;15.00;78.30;;;;;;5075072;28;20040;-64
2023/10/08 05:40:43;;;;;;;26.73;16.52;;;15.00;78.40;;;;;;5075314;28;20029;-64
2023/10/08 05:43:13;;;;;;;25.13;15.38;;;15.00;78.50;;;;;;5074498;28;20056;-64
2023/10/08 05:46:09;;;;;;;24.58;14.15;;;15.00;78.50;;;;;;5075544;28;20438;-64
2023/10/08 05:48:38;;;;;;;26.85;16.55;;;15.10;78.30;;;;;;5074939;28;20082;-64
2023/10/08 05:51:23;;;;;;;23.60;14.82;;;15.20;78.80;;;;;;5075178;28;20039;-64
2023/10/08 05:53:55;;;;;;;25.48;15.48;;;15.20;78.50;;;;;;5075146;28;20021;-64
2023/10/08 05:56:42;;;;;;;22.70;13.77;;;15.30;78.60;;;;;;5075149;28;20035;-64
2023/10/08 05:59:17;;;;;;;22.10;13.77;;;15.40;78.70;;;;;;5057458;28;20072;-64
2023/10/08 06:01:46;;;;;;;22.80;14.60;;;15.60;78.40;;;;;;5075449;28;20024;-64
2023/10/08 06:07:12;;;;;;;28.60;16.55;;;15.80;79.10;;;;;;5075110;28;20090;-64
2023/10/08 06:09:40;;;;;;;32.22;19.55;;;15.90;79.70;;;;;;5075036;28;20116;-64
2023/10/08 06:12:09;;;;;;;29.83;18.25;;;15.90;79.50;;;;;;5075021;28;20029;-64
2023/10/08 06:15:07;;;;;;;28.75;17.38;;;15.90;79.20;;;;;;5057367;28;20029;-64
2023/10/08 06:20:25;;;;;;;24.02;15.48;;;16.10;79.30;;;;;;5075018;28;20468;-64
2023/10/08 06:23:01;;;;;;;26.48;15.85;;;16.10;78.90;;;;;;5074922;28;20028;-65
2023/10/08 06:25:28;;;;;;;24.38;15.23;;;16.20;78.90;;;;;;5059140;28;20044;-65
2023/10/08 06:27:55;;;;;;;29.05;18.67;;;16.30;78.90;;;;;;5074721;28;20058;-64
2023/10/08 06:30:24;;;;;;;22.65;15.20;;;16.40;79.00;;;;;;5075053;28;20036;-64
2023/10/08 06:32:51;;;;;;;25.60;15.98;;;16.40;78.60;;;;;;5075120;28;20385;-64
2023/10/08 06:35:24;;;;;;;23.63;14.27;;;16.50;78.40;;;;;;5074862;28;20368;-65
2023/10/08 06:37:54;;;;;;;26.08;14.68;;;16.60;78.50;;;;;;5075464;28;20035;-65
2023/10/08 06:43:14;;;;;;;25.67;17.25;;;16.90;78.80;;;;;;5057623;28;20064;-65
2023/10/08 06:45:46;;;;;;;31.35;18.83;;;16.90;78.20;;;;;;5058451;28;20041;-64
2023/10/08 06:48:20;;;;;;;27.38;16.95;;;17.20;78.30;;;;;;5058239;28;20028;-64
2023/10/08 06:50:47;;;;;;;27.90;16.55;;;17.30;78.20;;;;;;5058989;28;20480;-64
2023/10/08 06:53:14;;;;;;;25.83;17.33;;;17.40;78.20;;;;;;5058377;28;20151;-64
2023/10/08 06:55:41;;;;;;;27.48;18.30;;;17.40;78.10;;;;;;5058308;28;20024;-65
2023/10/08 06:58:09;;;;;;;26.95;18.08;;;17.50;77.80;;;;;;5058141;28;20466;-65
2023/10/08 07:00:39;;;;;;;26.30;16.45;;;17.50;77.60;;;;;;5058477;28;20033;-65
2023/10/08 07:03:08;;;;;;;25.27;16.52;;;17.50;77.60;;;;;;5058479;28;20103;-65
2023/10/08 07:05:36;;;;;;;25.23;16.27;;;17.50;77.30;;;;;;5057134;28;20385;-65
2023/10/08 07:08:06;;;;;;;28.35;18.70;;;17.60;77.20;;;;;;5057866;28;20032;-64
2023/10/08 07:10:35;;;;;;;26.02;15.13;;;17.60;77.10;;;;;;5058415;28;20025;-64
2023/10/08 07:13:07;;;;;;;24.55;16.08;;;17.70;77.00;;;;;;5057993;28;20017;-64
2023/10/08 07:15:38;;;;;;;24.95;15.65;;;17.80;77.30;;;;;;5057908;28;20033;-64
2023/10/08 07:18:12;;;;;;;28.80;18.08;;;17.90;77.10;;;;;;5058442;28;20039;-64
2023/10/08 07:20:45;;;;;;;22.80;15.73;;;18.00;76.90;;;;;;5057833;28;20075;-65
2023/10/08 07:23:30;;;;;;;24.63;15.00;;;18.20;76.70;;;;;;5057751;28;20075;-64
2023/10/08 07:26:12;;;;;;;23.85;14.85;;;18.40;76.60;;;;;;5057704;28;20032;-64
2023/10/08 07:28:42;;;;;;;22.00;15.10;;;18.70;76.10;;;;;;5058098;28;20032;-64
2023/10/08 07:31:17;;;;;;;21.75;13.88;;;19.00;75.60;;;;;;5058172;28;20021;-64
2023/10/08 07:34:15;;;;;;;22.40;14.25;;;19.20;75.00;;;;;;5057822;28;20051;-64
2023/10/08 07:36:47;;;;;;;19.08;11.93;;;19.50;73.50;;;;;;5057445;28;20040;-64
2023/10/08 07:39:33;;;;;;;23.50;14.20;;;19.70;73.40;;;;;;5057693;28;20367;-65
2023/10/08 07:42:08;;;;;;;25.38;16.05;;;19.70;72.70;;;;;;5064452;28;20052;-64
2023/10/08 07:44:35;;;;;;;23.88;14.68;;;19.90;72.40;;;;;;5044496;28;20040;-64
2023/10/08 07:47:13;;;;;;;19.85;14.13;;;19.90;71.70;;;;;;5077296;28;20016;-64
2023/10/08 07:49:45;;;;;;;19.25;12.70;;;20.00;71.30;;;;;;5060959;28;20047;-64
2023/10/08 07:52:15;;;;;;;18.77;12.50;;;20.10;71.30;;;;;;5077255;28;20505;-64
2023/10/08 07:54:53;;;;;;;19.40;11.32;;;20.30;71.30;;;;;;5077130;28;20036;-65
2023/10/08 07:57:25;;;;;;;17.38;11.35;;;20.40;70.80;;;;;;5077512;28;20028;-65
2023/10/08 07:59:54;;;;;;;15.60;9.97;;;20.50;70.30;;;;;;5077425;28;20071;-64
2023/10/08 08:02:23;;;;;;;21.40;11.25;;;20.70;70.00;;;;;;5077674;28;20047;-65
2023/10/08 08:04:53;;;;;;;17.60;10.80;;;20.80;69.50;;;;;;5077839;28;20025;-65
2023/10/08 08:07:21;;;;;;;17.38;11.52;;;20.90;68.90;;;;;;5077474;28;20104;-65
2023/10/08 08:09:52;;;;;;;18.33;10.63;;;20.90;68.40;;;;;;5076930;28;20442;-65
2023/10/08 08:12:21;;;;;;;16.85;10.63;;;21.00;68.00;;;;;;5060116;28;20024;-65
2023/10/08 08:14:48;;;;;;;17.23;10.38;;;21.10;67.80;;;;;;5077394;28;20099;-64
2023/10/08 08:17:15;;;;;;;15.73;10.05;;;21.20;67.80;;;;;;5076787;28;20411;-65
2023/10/08 08:19:52;;;;;;;17.63;10.68;;;21.30;67.50;;;;;;5076733;28;20021;-65
2023/10/08 08:22:22;;;;;;;15.90;9.80;;;21.40;66.80;;;;;;5043314;28;20361;-65
2023/10/08 08:24:53;;;;;;;16.45;9.40;;;21.50;66.40;;;;;;5076897;28;20051;-65
2023/10/08 08:27:31;;;;;;;17.05;10.40;;;21.60;66.60;;;;;;5076851;28;20054;-65
2023/10/08 08:30:09;;;;;;;14.73;9.32;;;21.70;65.30;;;;;;5060736;28;20495;-65
2023/10/08 08:32:48;;;;;;;24.85;13.18;;;21.80;65.40;;;;;;5058889;28;20024;-65
2023/10/08 08:35:17;;;;;;;14.90;9.27;;;21.90;64.40;;;;;;5042801;28;20021;-65
2023/10/08 08:37:46;;;;;;;14.32;9.38;;;21.90;63.90;;;;;;5076308;28;20056;-65
2023/10/08 08:40:18;;;;;;;16.98;10.02;;;22.00;63.00;;;;;;5076263;28;20027;-65
2023/10/08 08:42:58;;;;;;;13.55;8.27;;;22.10;62.70;;;;;;5055063;28;20360;-65
2023/10/08 08:45:24;;;;;;;18.52;9.95;;;22.20;63.10;;;;;;5055345;28;20128;-65
2023/10/08 08:47:54;;;;;;;13.55;8.77;;;22.20;62.30;;;;;;5056187;28;20342;-65
2023/10/08 08:50:21;;;;;;;13.85;8.73;;;22.20;62.50;;;;;;5055579;28;20029;-65
2023/10/08 08:52:47;;;;;;;15.23;9.18;;;22.40;62.70;;;;;;5056376;28;20074;-65
2023/10/08 08:55:14;;;;;;;18.17;10.15;;;22.40;62.30;;;;;;5055224;28;20549;-65
2023/10/08 08:57:59;;;;;;;12.80;8.45;;;22.40;61.90;;;;;;5038648;28;20077;-65
2023/10/08 09:00:30;;;;;;;14.90;8.15;;;22.50;61.40;;;;;;5037834;28;20044;-65
2023/10/08 09:02:56;;;;;;;14.98;8.98;;;22.50;61.80;;;;;;5054980;28;20166;-65
2023/10/08 09:05:25;;;;;;;14.95;8.80;;;22.60;61.90;;;;;;5056205;28;20025;-65
2023/10/08 09:08:07;;;;;;;15.15;8.23;;;22.60;61.60;;;;;;5056241;28;20103;-65
2023/10/08 09:10:50;;;;;;;15.18;9.18;;;22.70;61.10;;;;;;5056329;28;20154;-64
2023/10/08 09:13:22;;;;;;;15.13;8.57;;;22.70;60.10;;;;;;5055689;28;20366;-64
2023/10/08 09:15:52;;;;;;;14.30;8.95;;;22.80;60.50;;;;;;5055944;28;20103;-63
2023/10/08 09:18:21;;;;;;;15.40;8.43;;;22.80;60.20;;;;;;5054567;28;20017;-64
2023/10/08 09:20:48;;;;;;;15.20;9.10;;;22.90;60.00;;;;;;5054898;28;20028;-64
2023/10/08 09:23:17;;;;;;;15.13;8.68;;;23.00;59.20;;;;;;5055610;28;20092;-64
2023/10/08 09:25:45;;;;;;;14.18;9.15;;;23.10;59.50;;;;;;5055765;28;20050;-64
2023/10/08 09:28:14;;;;;;;15.25;9.05;;;23.20;58.80;;;;;;5054524;28;20024;-64
2023/10/08 09:30:45;;;;;;;14.85;8.85;;;23.30;59.20;;;;;;5055485;28;20040;-64
2023/10/08 09:33:12;;;;;;;11.82;7.10;;;23.40;58.90;;;;;;5055325;28;20053;-64
2023/10/08 09:35:39;;;;;;;13.48;7.63;;;23.40;58.70;;;;;;5054351;28;20025;-64
2023/10/08 09:38:11;;;;;;;13.57;7.60;;;23.50;58.80;;;;;;5054243;28;20032;-64
2023/10/08 09:40:40;;;;;;;14.70;7.75;;;23.50;58.50;;;;;;5055308;28;20025;-64
2023/10/08 09:43:08;;;;;;;17.58;9.77;;;23.60;58.30;;;;;;5070840;28;20119;-64
2023/10/08 09:45:35;;;;;;;13.68;8.02;;;23.60;56.20;;;;;;5058381;28;20040;-64
2023/10/08 09:48:05;;;;;;;13.20;8.02;;;23.60;57.30;;;;;;5057889;28;20066;-64
2023/10/08 09:50:38;;;;;;;11.80;7.60;;;23.50;57.40;;;;;;5075789;28;20020;-63
2023/10/08 09:53:06;;;;;;;;;;;23.50;57.70;;;;;;5076247;28;20334;-64
2023/10/08 09:55:33;;;;;;;14.02;8.05;;;23.70;56.30;;;;;;5075139;28;20406;-64
2023/10/08 09:57:59;;;;;;;10.65;6.65;;;23.80;57.50;;;;;;5075668;28;20031;-64
2023/10/08 10:00:31;;;;;;;20.08;9.68;;;23.90;57.30;;;;;;5075159;28;20039;-64
2023/10/08 10:03:02;;;;;;;13.43;8.40;;;23.90;56.90;;;;;;5075427;28;20051;-62
2023/10/08 10:05:32;;;;;;;14.25;8.27;;;24.00;56.90;;;;;;5075066;28;20036;-64
2023/10/08 10:08:00;;;;;;;14.23;7.63;;;23.90;55.90;;;;;;5075194;28;20044;-64
2023/10/08 10:10:34;;;;;;;13.18;7.70;;;23.90;56.70;;;;;;5075603;28;20036;-64
2023/10/08 10:13:09;;;;;;;12.27;7.20;;;23.90;56.90;;;;;;5077301;28;20457;-64
2023/10/08 10:15:39;;;;;;;14.82;8.98;;;23.90;57.10;;;;;;5079303;28;20025;-64
2023/10/08 10:18:31;;;;;;;11.95;8.32;;;24.00;55.50;;;;;;5079394;28;20450;-64
2023/10/08 10:21:26;;;;;;;15.13;8.25;;;24.10;56.10;;;;;;5079540;28;20480;-65
2023/10/08 10:23:53;;;;;;;13.82;8.15;;;24.20;56.20;;;;;;5079458;28;20020;-64
2023/10/08 10:26:28;;;;;;;13.18;8.23;;;24.40;56.30;;;;;;5079075;28;20479;-64
2023/10/08 10:29:33;;;;;;;13.82;7.63;;;24.40;55.40;;;;;;5078705;28;20028;-64
2023/10/08 10:32:05;;;;;;;11.15;7.13;;;24.40;55.20;;;;;;5079340;28;20044;-64
2023/10/08 10:37:08;;;;;;;13.23;7.88;;;24.40;56.00;;;;;;5079233;28;20059;-64
2023/10/08 10:39:41;;;;;;;15.32;8.20;;;24.50;55.70;;;;;;5078762;28;20497;-64
2023/10/08 10:42:28;;;;;;;13.32;8.05;;;24.40;55.30;;;;;;5078003;28;20044;-64
2023/10/08 10:44:58;;;;;;;12.35;7.68;;;24.40;55.80;;;;;;5078509;28;20480;-64
2023/10/08 10:47:27;;;;;;;13.93;7.90;;;24.40;55.50;;;;;;5078661;28;20033;-64
2023/10/08 10:50:39;;;;;;;17.38;9.80;;;24.40;55.50;;;;;;5078679;28;20107;-64
2023/10/08 10:52:52;;;;;;;16.15;8.50;;;24.40;54.60;;;;;;5062351;28;20040;-64
2023/10/08 10:55:31;;;;;;;12.48;7.78;;;24.40;55.40;;;;;;5078642;28;20028;-65
2023/10/08 10:58:15;;;;;;;17.55;8.13;;;24.40;55.20;;;;;;5060557;28;20028;-65
2023/10/08 11:03:17;;;;;;;12.38;7.93;;;24.50;55.40;;;;;;5078146;28;20123;-65
2023/10/08 11:05:54;;;;;;;11.65;7.40;;;24.50;55.50;;;;;;5061815;28;20497;-64
2023/10/08 11:08:24;;;;;;;11.77;6.90;;;24.70;55.00;;;;;;5060329;28;20032;-64
2023/10/08 11:10:58;;;;;;;13.80;8.18;;;24.70;55.40;;;;;;5078345;28;20016;-64
2023/10/08 11:13:28;;;;;;;12.98;7.97;;;24.80;54.70;;;;;;5077883;28;20032;-64
2023/10/08 11:15:59;;;;;;;12.45;7.78;;;24.70;54.90;;;;;;5077826;28;20166;-64
2023/10/08 11:18:29;;;;;;;11.63;7.20;;;24.60;54.90;;;;;;5077740;28;20362;-63
2023/10/08 11:21:23;;;;;;;14.40;8.60;;;24.60;54.80;;;;;;5044426;28;20021;-64
2023/10/08 11:23:55;;;;;;;17.52;9.35;;;24.70;54.80;;;;;;5059375;28;20037;-64
2023/10/08 11:29:14;;;;;;;17.27;9.93;;;24.90;54.10;;;;;;5077960;28;20353;-63
2023/10/08 11:31:52;;;;;;;13.25;8.15;;;25.10;54.40;;;;;;5077495;28;20032;-63
2023/10/08 11:37:19;;;;;;;17.35;8.80;;;25.20;53.50;;;;;;5045398;28;20064;-64
2023/10/08 11:44:59;;;;;;;11.60;7.22;;;25.00;54.10;;;;;;5077535;28;20047;-63
2023/10/08 11:47:35;;;;;;;13.57;7.80;;;25.00;54.30;;;;;;5077639;28;20052;-63
2023/10/08 11:50:11;;;;;;;13.98;7.50;;;25.10;54.50;;;;;;5077335;28;20472;-63
2023/10/08 11:52:41;;;;;;;13.50;7.28;;;25.20;54.50;;;;;;5077625;28;20055;-64
2023/10/08 11:55:09;;;;;;;13.70;7.78;;;25.40;54.30;;;;;;5077620;28;20392;-63
2023/10/08 11:57:45;;;;;;;15.00;7.75;;;25.50;54.20;;;;;;5077409;28;20069;-64
2023/10/08 12:00:18;;;;;;;15.85;7.97;;;25.50;53.60;;;;;;5076704;28;20369;-63
2023/10/08 12:02:48;;;;;;;12.45;7.93;;;25.40;53.20;;;;;;5077114;28;20013;-63
2023/10/08 12:05:19;;;;;;;14.48;7.80;;;25.40;53.60;;;;;;5059713;28;20032;-64
2023/10/08 12:07:50;;;;;;;11.93;7.65;;;25.40;53.90;;;;;;5077386;28;20060;-64
2023/10/08 12:10:22;;;;;;;13.93;9.15;;;25.40;54.40;;;;;;5076889;28;20442;-63
2023/10/08 12:12:54;;;;;;;13.60;8.27;;;25.40;54.80;;;;;;5077093;28;20442;-64
2023/10/08 12:15:26;;;;;;;13.15;8.40;;;25.40;54.50;;;;;;5076762;28;20024;-64
2023/10/08 12:20:39;;;;;;;11.98;7.68;;;25.30;54.70;;;;;;5076783;28;20040;-64
2023/10/08 12:23:10;;;;;;;16.27;8.85;;;25.30;54.90;;;;;;5076832;28;20044;-63
2023/10/08 12:25:37;;;;;;;13.98;8.73;;;25.40;55.00;;;;;;5076563;28;20036;-62
2023/10/08 12:28:04;;;;;;;17.27;8.75;;;25.40;54.60;;;;;;5076396;28;20020;-62
2023/10/08 12:30:41;;;;;;;14.98;8.88;;;25.30;54.90;;;;;;5076814;28;20029;-63
2023/10/08 12:33:12;;;;;;;13.82;8.77;;;25.20;54.80;;;;;;5076797;28;20016;-62
2023/10/08 12:35:41;;;;;;;15.90;8.68;;;25.30;55.00;;;;;;5076379;28;20056;-62
2023/10/08 12:38:08;;;;;;;13.63;9.07;;;25.40;54.90;;;;;;5076295;28;20044;-63
2023/10/08 12:40:47;;;;;;;14.15;7.70;;;25.40;54.10;;;;;;5076205;28;20037;-62
2023/10/08 12:43:18;;;;;;;16.88;9.00;;;25.40;54.90;;;;;;5055057;28;20057;-62
2023/10/08 12:45:54;;;;;;;15.75;8.55;;;25.50;54.90;;;;;;5056187;28;20029;-62
2023/10/08 12:48:21;;;;;;;15.25;8.50;;;25.50;54.60;;;;;;5056418;28;20450;-62
2023/10/08 12:50:52;;;;;;;13.90;7.60;;;25.50;54.30;;;;;;5056138;28;20332;-62
2023/10/08 12:53:36;;;;;;;14.80;8.13;;;25.50;54.40;;;;;;5056062;28;20025;-63
2023/10/08 12:56:07;;;;;;;13.95;8.30;;;25.50;54.50;;;;;;5056608;28;20016;-63
2023/10/08 12:58:41;;;;;;;15.40;8.57;;;25.50;54.10;;;;;;5056191;28;20032;-63
2023/10/08 13:01:09;;;;;;;13.98;9.32;;;25.40;54.30;;;;;;5056250;28;20037;-62
2023/10/08 13:03:41;;;;;;;18.55;8.60;;;25.40;54.20;;;;;;5056116;28;20025;-62
2023/10/08 13:06:14;;;;;;;13.43;7.82;;;25.40;54.60;;;;;;5056401;28;20029;-63
2023/10/08 13:08:41;;;;;;;14.30;8.13;;;25.30;54.70;;;;;;5055637;28;20021;-63
2023/10/08 13:11:08;;;;;;;16.75;8.82;;;25.30;54.80;;;;;;5055718;28;20407;-62
2023/10/08 13:13:36;;;;;;;14.77;8.70;;;25.30;54.70;;;;;;5055751;28;20056;-62
2023/10/08 13:16:07;;;;;;;14.80;8.50;;;25.30;54.80;;;;;;5055604;28;20280;-63
2023/10/08 13:18:37;;;;;;;15.45;8.27;;;25.30;54.90;;;;;;5055450;28;20123;-63
2023/10/08 13:21:04;;;;;;;14.63;8.38;;;25.40;54.90;;;;;;5054416;28;20039;-62
2023/10/08 13:23:33;;;;;;;16.02;8.57;;;25.30;55.00;;;;;;5055987;28;20035;-63
2023/10/08 13:26:04;;;;;;;16.42;8.68;;;25.30;54.90;;;;;;5055561;28;20016;-63
2023/10/08 13:28:33;;;;;;;15.50;8.93;;;25.40;55.00;;;;;;5055524;28;20029;-62
2023/10/08 13:31:09;;;;;;;16.92;9.10;;;25.30;55.00;;;;;;5055410;28;20021;-62
2023/10/08 13:33:39;;;;;;;17.67;9.10;;;25.30;55.10;;;;;;5052352;28;20028;-63
2023/10/08 13:36:13;;;;;;;14.65;8.73;;;25.40;55.10;;;;;;5054585;28;20029;-63
2023/10/08 13:38:43;;;;;;;13.25;8.25;;;25.40;55.10;;;;;;5054714;28;20029;-63
2023/10/08 13:41:15;;;;;;;15.43;8.02;;;25.40;55.00;;;;;;5054402;28;20051;-62
2023/10/08 13:43:51;;;;;;;16.38;9.18;;;25.50;54.90;;;;;;5069393;28;20048;-63
2023/10/08 13:46:22;;;;;;;13.90;9.00;;;25.60;54.70;;;;;;5057020;28;20048;-62
2023/10/08 13:48:48;;;;;;;17.10;9.68;;;25.60;54.50;;;;;;5073559;28;20033;-63
2023/10/08 13:51:23;;;;;;;18.15;10.43;;;25.50;54.70;;;;;;5074508;28;20021;-63
2023/10/08 13:53:59;;;;;;;16.67;10.00;;;25.50;54.70;;;;;;5074491;28;20025;-63
2023/10/08 13:56:26;;;;;;;16.70;9.18;;;25.40;55.00;;;;;;5074491;28;20066;-63